Time;durP1;ratioP1;P1;durP2;ratioP2;P2;SDS_P1;SDS_P2;PMS_P1;PMS_P2;Temp;Humidity;BMP_temperature;BMP_pressure;BME280_temperature;BME280_humidity;BME280_pressure;Samples;Min_cycle;Max_cycle;Signal;HPM_P1;HPM_P2
2023/08/06 00:02:00;;;;;;;;;;;17.00;99.90;;;;;;5078878;28;19913;-93
2023/08/06 00:04:54;;;;;;;;;;;17.00;99.90;;;;;;5078622;28;19924;-92
2023/08/06 00:07:26;;;;;;;;;;;17.00;99.90;;;;;;5079854;28;19919;-92
2023/08/06 00:10:13;;;;;;;;;;;17.00;99.90;;;;;;5078194;28;19918;-91
2023/08/06 00:12:41;;;;;;;;;;;17.00;99.90;;;;;;5094859;28;19912;-93
2023/08/06 00:15:20;;;;;;;;;;;17.00;99.90;;;;;;5077629;28;19954;-92
2023/08/06 00:17:58;;;;;;;;;;;;;;;;;;;;;
2023/08/06 00:20:24;;;;;;;;;;;17.00;99.90;;;;;;5083993;28;20011;-92
2023/08/06 00:23:00;;;;;;;;;;;;;;;;;;;;;
2023/08/06 00:25:28;;;;;;;;;;;17.00;99.90;;;;;;5118591;28;19904;-95
2023/08/06 00:27:56;;;;;;;;;;;17.00;99.90;;;;;;5090258;28;19912;-93
2023/08/06 00:30:45;;;;;;;;;;;17.00;99.90;;;;;;5077060;28;19935;-93
2023/08/06 00:33:13;;;;;;;;;;;17.00;99.90;;;;;;5083098;28;19919;-92
2023/08/06 00:35:46;;;;;;;;;;;17.00;99.90;;;;;;5096119;28;19995;-93
2023/08/06 00:38:21;;;;;;;;;;;17.00;99.90;;;;;;5078060;28;19955;-92
2023/08/06 00:40:49;;;;;;;;;;;17.00;99.90;;;;;;5077882;28;20283;-93
2023/08/06 00:43:17;;;;;;;;;;;17.00;99.90;;;;;;5076620;28;19920;-91
2023/08/06 00:45:50;;;;;;;;;;;17.00;99.90;;;;;;5060685;28;21165;-92
2023/08/06 00:48:18;;;;;;;;;;;17.00;99.90;;;;;;5076822;28;19934;-92
2023/08/06 00:50:46;;;;;;;;;;;17.00;99.90;;;;;;5093554;28;19908;-94
2023/08/06 00:53:43;;;;;;;;;;;17.00;99.90;;;;;;5076687;28;19913;-93
2023/08/06 00:56:22;;;;;;;;;;;17.00;99.90;;;;;;5070435;28;20380;-94
2023/08/06 00:58:53;;;;;;;;;;;17.00;99.90;;;;;;5077053;28;19927;-94
2023/08/06 01:01:26;;;;;;;;;;;17.00;99.90;;;;;;5094051;28;19959;-92
2023/08/06 01:04:04;;;;;;;;;;;;;;;;;;;;;
2023/08/06 01:06:46;;;;;;;;;;;17.00;99.90;;;;;;5094732;28;20447;-93
2023/08/06 01:09:23;;;;;;;;;;;17.00;99.90;;;;;;5093934;28;19912;-93
2023/08/06 01:12:13;;;;;;;;;;;17.00;99.90;;;;;;5093335;28;19917;-93
2023/08/06 01:14:52;;;;;;;;;;;17.00;99.90;;;;;;5094713;28;19908;-93
2023/08/06 01:17:21;;;;;;;;;;;17.00;99.90;;;;;;5078243;28;19908;-92
2023/08/06 01:19:46;;;;;;;;;;;17.00;99.90;;;;;;5096678;28;19912;-92
2023/08/06 01:22:12;;;;;;;;;;;17.00;99.90;;;;;;5101066;28;19937;-93
2023/08/06 01:24:38;;;;;;;;;;;17.00;99.90;;;;;;5082553;28;20306;-93
2023/08/06 01:27:06;;;;;;;;;;;17.00;99.90;;;;;;5076757;28;19919;-92
2023/08/06 01:29:38;;;;;;;;;;;17.00;99.90;;;;;;5093188;28;19919;-93
2023/08/06 01:32:11;;;;;;;;;;;16.90;99.90;;;;;;5093544;28;19987;-92
2023/08/06 01:34:40;;;;;;;;;;;16.90;99.90;;;;;;5092567;28;19908;-93
2023/08/06 01:37:07;;;;;;;;;;;17.00;99.90;;;;;;5093111;28;19915;-92
2023/08/06 01:39:38;;;;;;;;;;;17.00;99.90;;;;;;5092625;28;19958;-92
2023/08/06 01:42:06;;;;;;;;;;;17.00;99.90;;;;;;5076342;28;19915;-92
2023/08/06 01:44:33;;;;;;;;;;;16.90;99.90;;;;;;5092996;28;19912;-92
2023/08/06 01:49:47;;;;;;;;;;;17.00;99.90;;;;;;5097658;28;19915;-92
2023/08/06 01:52:13;;;;;;;;;;;16.90;99.90;;;;;;5096803;28;19908;-91
2023/08/06 01:54:41;;;;;;;;;;;16.90;99.90;;;;;;5079540;28;19915;-93
2023/08/06 01:57:14;;;;;;;;;;;17.00;99.90;;;;;;5096986;28;19908;-92
2023/08/06 01:59:42;;;;;;;;;;;16.90;99.90;;;;;;5096611;28;20011;-93
2023/08/06 02:02:15;;;;;;;;;;;16.90;99.90;;;;;;5079879;28;20010;-92
2023/08/06 02:04:43;;;;;;;;;;;16.90;99.90;;;;;;5079619;28;19916;-94
2023/08/06 02:07:12;;;;;;;;;;;16.90;99.90;;;;;;5079283;28;19909;-93
2023/08/06 02:09:41;;;;;;;;;;;16.90;99.90;;;;;;5079302;28;20387;-93
2023/08/06 02:12:14;;;;;;;;;;;16.90;99.90;;;;;;5062850;28;19919;-92
2023/08/06 02:14:42;;;;;;;;;;;16.90;99.90;;;;;;5096365;28;19908;-92
2023/08/06 02:17:08;;;;;;;;;;;16.90;99.90;;;;;;5079477;28;19914;-90
2023/08/06 02:19:36;;;;;;;;;;;16.90;99.90;;;;;;5079347;28;19908;-92
2023/08/06 02:22:09;;;;;;;;;;;16.90;99.90;;;;;;5079307;28;19938;-91
2023/08/06 02:24:37;;;;;;;;;;;16.90;99.90;;;;;;5078600;28;20438;-91
2023/08/06 02:27:10;;;;;;;;;;;16.90;99.90;;;;;;5079116;28;19919;-92
2023/08/06 02:29:39;;;;;;;;;;;16.90;99.90;;;;;;5079343;28;19920;-91
2023/08/06 02:32:08;;;;;;;;;;;16.90;99.90;;;;;;5095552;28;19908;-91
2023/08/06 02:34:41;;;;;;;;;;;16.90;99.90;;;;;;5095753;28;19915;-94
2023/08/06 02:37:07;;;;;;;;;;;16.90;99.90;;;;;;5079288;28;19908;-93
2023/08/06 02:39:42;;;;;;;;;;;16.90;99.90;;;;;;5078836;28;19915;-93
2023/08/06 02:42:31;;;;;;;;;;;;;;;;;;;;;
2023/08/06 02:45:08;;;;;;;;;;;16.90;99.90;;;;;;5097112;28;19923;-92
2023/08/06 02:47:41;;;;;;;;;;;16.90;99.90;;;;;;5079003;28;19924;-92
2023/08/06 02:50:10;;;;;;;;;;;16.90;99.90;;;;;;5078934;28;19916;-92
2023/08/06 02:52:38;;;;;;;;;;;16.90;99.90;;;;;;5095672;28;19908;-93
2023/08/06 02:55:04;;;;;;;;;;;16.90;99.90;;;;;;5062119;28;20331;-93
2023/08/06 02:57:32;;;;;;;;;;;16.90;99.90;;;;;;5095525;28;19947;-92
2023/08/06 03:00:06;;;;;;;;;;;16.90;99.90;;;;;;5078730;28;19908;-92
2023/08/06 03:02:36;;;;;;;;;;;16.90;99.90;;;;;;5079109;28;19973;-92
2023/08/06 03:05:09;;;;;;;;;;;16.90;99.90;;;;;;5079281;28;19924;-92
2023/08/06 03:07:37;;;;;;;;;;;16.90;99.90;;;;;;5078845;28;19916;-93
2023/08/06 03:10:14;;;;;;;;;;;16.90;99.90;;;;;;5078458;28;19915;-92
2023/08/06 03:12:42;;;;;;;;;;;16.90;99.90;;;;;;5080426;28;20321;-93
2023/08/06 03:15:15;;;;;;;;;;;16.90;99.90;;;;;;5083692;28;19933;-92
2023/08/06 03:17:41;;;;;;;;;;;16.90;99.90;;;;;;5092042;28;19978;-94
2023/08/06 03:20:14;;;;;;;;;;;17.00;99.90;;;;;;5101290;28;19897;-93
2023/08/06 03:22:42;;;;;;;;;;;16.90;99.90;;;;;;5115139;28;19912;-95
2023/08/06 03:25:13;;;;;;;;;;;16.90;99.90;;;;;;5078600;28;19965;-93
2023/08/06 03:27:38;;;;;;;;;;;16.90;99.90;;;;;;5078209;28;20383;-93
2023/08/06 03:30:13;;;;;;;;;;;16.90;99.90;;;;;;5078199;28;19908;-93
2023/08/06 03:32:39;;;;;;;;;;;16.90;99.90;;;;;;5095239;28;19920;-93
2023/08/06 03:35:07;;;;;;;;;;;16.90;99.90;;;;;;5078283;28;20011;-93
2023/08/06 03:37:33;;;;;;;;;;;16.90;99.90;;;;;;5095351;28;20409;-93
2023/08/06 03:40:01;;;;;;;;;;;16.90;99.90;;;;;;5078538;28;19908;-92
2023/08/06 03:42:55;;;;;;;;;;;16.90;99.90;;;;;;5078413;28;20340;-92
2023/08/06 03:45:15;;;;;;;;;;;16.90;99.90;;;;;;5091801;28;19916;-93
2023/08/06 03:47:43;;;;;;;;;;;16.90;99.90;;;;;;5077592;28;19928;-93
2023/08/06 03:50:11;;;;;;;;;;;16.90;99.90;;;;;;5078010;28;19915;-93
2023/08/06 03:52:41;;;;;;;;;;;16.90;99.90;;;;;;5095679;28;19958;-93
2023/08/06 03:55:09;;;;;;;;;;;16.90;99.90;;;;;;5100917;28;19932;-92
2023/08/06 03:57:37;;;;;;;;;;;16.90;99.90;;;;;;5101681;28;19924;-93
2023/08/06 04:00:18;;;;;;;;;;;16.90;99.90;;;;;;5080009;28;19917;-93
2023/08/06 04:02:43;;;;;;;;;;;16.90;99.90;;;;;;5078961;28;19912;-94
2023/08/06 04:05:19;;;;;;;;;;;16.90;99.90;;;;;;5077829;28;20379;-93
2023/08/06 04:07:47;;;;;;;;;;;16.90;99.90;;;;;;5094594;28;19908;-94
2023/08/06 04:10:12;;;;;;;;;;;16.90;99.90;;;;;;5076880;28;19959;-93
2023/08/06 04:12:39;;;;;;;;;;;16.90;99.90;;;;;;5077706;28;20371;-93
2023/08/06 04:15:05;;;;;;;;;;;16.90;99.90;;;;;;5077479;28;19934;-94
2023/08/06 04:17:31;;;;;;;;;;;16.90;99.90;;;;;;5094125;28;20394;-93
2023/08/06 04:20:02;;;;;;;;;;;16.90;99.90;;;;;;5077277;28;19908;-92
2023/08/06 04:22:32;;;;;;;;;;;16.90;99.90;;;;;;5077508;28;19908;-93
2023/08/06 04:25:06;;;;;;;;;;;16.90;99.90;;;;;;5094000;28;19923;-93
2023/08/06 04:27:41;;;;;;;;;;;16.90;99.90;;;;;;5094136;28;20102;-93
2023/08/06 04:30:11;;;;;;;;;;;16.90;99.90;;;;;;5077427;28;19908;-93
2023/08/06 04:32:40;;;;;;;;;;;16.90;99.90;;;;;;5077604;28;20360;-93
2023/08/06 04:35:08;;;;;;;;;;;16.90;99.90;;;;;;5077359;28;19939;-93
2023/08/06 04:37:51;;;;;;;;;;;16.90;99.90;;;;;;5077475;28;19935;-93
2023/08/06 04:40:19;;;;;;;;;;;17.00;99.90;;;;;;5094299;28;19909;-93
2023/08/06 04:42:47;;;;;;;;;;;16.90;99.90;;;;;;5093538;28;19908;-93
2023/08/06 04:45:16;;;;;;;;;;;16.90;99.90;;;;;;5077483;28;20021;-92
2023/08/06 04:47:44;;;;;;;;;;;17.00;99.90;;;;;;5073217;28;20222;-92
2023/08/06 04:50:09;;;;;;;;;;;16.90;99.90;;;;;;5056985;28;20423;-92
2023/08/06 04:52:46;;;;;;;;;;;17.00;99.90;;;;;;5074731;28;19954;-92
2023/08/06 04:55:14;;;;;;;;;;;17.00;99.90;;;;;;5059481;28;19916;-93
2023/08/06 04:57:40;;;;;;;;;;;17.00;99.90;;;;;;5074223;28;19913;-92
2023/08/06 05:00:08;;;;;;;;;;;17.00;99.90;;;;;;5073659;28;19908;-93
2023/08/06 05:02:38;;;;;;;;;;;17.00;99.90;;;;;;5073455;28;19908;-92
2023/08/06 05:05:04;;;;;;;;;;;17.00;99.90;;;;;;5073443;28;19924;-92
2023/08/06 05:07:34;;;;;;;;;;;17.00;99.90;;;;;;5073294;28;19962;-93
2023/08/06 05:10:08;;;;;;;;;;;17.00;99.90;;;;;;5073372;28;19977;-93
2023/08/06 05:12:36;;;;;;;;;;;17.00;99.90;;;;;;5056507;28;19913;-93
2023/08/06 05:15:02;;;;;;;;;;;17.00;99.90;;;;;;5073200;28;19916;-93
2023/08/06 05:17:37;;;;;;;;;;;;;;;;;;;;;
2023/08/06 05:20:06;;;;;;;;;;;17.00;99.90;;;;;;5074242;28;19909;-93
2023/08/06 05:22:37;;;;;;;;;;;17.00;99.90;;;;;;5060604;28;20027;-93
2023/08/06 05:25:06;;;;;;;;;;;17.10;99.90;;;;;;5077013;28;19921;-92
2023/08/06 05:27:39;;;;;;;;;;;17.00;99.90;;;;;;5081620;28;19912;-93
2023/08/06 05:30:07;;;;;;;;;;;17.10;99.90;;;;;;5060271;28;19920;-93
2023/08/06 05:32:38;;;;;;;;;;;17.10;99.90;;;;;;5077105;28;19908;-93
2023/08/06 05:35:06;;;;;;;;;;;17.10;99.90;;;;;;5060637;28;20352;-93
2023/08/06 05:37:42;;;;;;;;;;;17.10;99.90;;;;;;5077406;28;19913;-93
2023/08/06 05:40:18;;;;;;;;;;;17.10;99.90;;;;;;5076661;28;19995;-94
2023/08/06 05:42:43;;;;;;;;;;;17.10;99.90;;;;;;5060891;28;19913;-93
2023/08/06 05:45:14;;;;;;;;;;;17.10;99.90;;;;;;5076534;28;19916;-93
2023/08/06 05:47:51;;;;;;;;;;;17.10;99.90;;;;;;5076504;28;20007;-93
2023/08/06 05:50:30;;;;;;;;;;;17.20;99.90;;;;;;5076840;28;19909;-92
2023/08/06 05:52:58;;;;;;;;;;;17.20;99.90;;;;;;5077044;28;19909;-92
2023/08/06 05:55:55;;;;;;;;;;;17.20;99.90;;;;;;5076666;28;20356;-93
2023/08/06 05:58:25;;;;;;;;;;;17.20;99.90;;;;;;5077032;28;19916;-92
2023/08/06 06:04:18;;;;;;;;;;;17.20;99.90;;;;;;5069979;28;19983;-94
2023/08/06 06:07:03;;;;;;;;;;;17.20;99.90;;;;;;5075989;28;19912;-96
2023/08/06 06:09:34;;;;;;;;;;;17.20;99.90;;;;;;5076959;28;19908;-94
2023/08/06 06:12:06;;;;;;;;;;;17.30;99.90;;;;;;5072380;28;19972;-93
2023/08/06 06:14:32;;;;;;;;;;;17.20;99.90;;;;;;5096529;28;20006;-93
2023/08/06 06:17:01;;;;;;;;;;;17.30;99.90;;;;;;5100849;28;19897;-93
2023/08/06 06:19:27;;;;;;;;;;;17.30;99.90;;;;;;5077821;28;19962;-93
2023/08/06 06:21:53;;;;;;;;;;;17.30;99.90;;;;;;5076065;28;19960;-93
2023/08/06 06:24:29;;;;;;;;;;;17.30;99.90;;;;;;5075840;28;20423;-92
2023/08/06 06:27:15;;;;;;;;;;;17.30;99.90;;;;;;5076484;28;19995;-94
2023/08/06 06:29:45;;;;;;;;;;;17.30;99.90;;;;;;5078453;28;20008;-93
2023/08/06 06:32:13;;;;;;;;;;;17.30;99.90;;;;;;5099378;28;19935;-94
2023/08/06 06:34:41;;;;;;;;;;;17.30;99.90;;;;;;5065717;28;19958;-93
2023/08/06 06:37:12;;;;;;;;;;;17.30;99.90;;;;;;5075819;28;19919;-92
2023/08/06 06:39:44;;;;;;;;;;;17.30;99.90;;;;;;5075689;28;19913;-93
2023/08/06 06:42:14;;;;;;;;;;;17.40;99.90;;;;;;5059057;28;19924;-92
2023/08/06 06:44:42;;;;;;;;;;;17.30;99.90;;;;;;5075594;28;20019;-92
2023/08/06 06:47:18;;;;;;;;;;;17.40;99.90;;;;;;5075120;28;19924;-92
2023/08/06 06:49:43;;;;;;;;;;;17.40;99.90;;;;;;5059196;28;19935;-91
2023/08/06 06:52:09;;;;;;;;;;;17.40;99.90;;;;;;5075438;28;19938;-90
2023/08/06 06:54:37;;;;;;;;;;;17.40;99.90;;;;;;5075439;28;19982;-91
2023/08/06 06:57:06;;;;;;;;;;;17.40;99.90;;;;;;5075600;28;20267;-90
2023/08/06 06:59:42;;;;;;;;;;;17.40;99.90;;;;;;5059277;28;19919;-90
2023/08/06 07:02:07;;;;;;;;;;;17.40;99.90;;;;;;5059229;28;19912;-90
2023/08/06 07:04:33;;;;;;;;;;;17.40;99.90;;;;;;5075134;28;19939;-90
2023/08/06 07:06:58;;;;;;;;;;;17.40;99.90;;;;;;5075315;28;19908;-90
2023/08/06 07:09:24;;;;;;;;;;;17.40;99.90;;;;;;5074958;28;19908;-90
2023/08/06 07:11:50;;;;;;;;;;;17.40;99.90;;;;;;5075104;28;19908;-90
2023/08/06 07:14:16;;;;;;;;;;;17.40;99.90;;;;;;5074774;28;19908;-91
2023/08/06 07:16:41;;;;;;;;;;;17.40;99.90;;;;;;5075274;28;19915;-90
2023/08/06 07:19:09;;;;;;;;;;;17.40;99.90;;;;;;5074670;28;20261;-91
2023/08/06 07:21:35;;;;;;;;;;;17.40;99.90;;;;;;5075146;28;19908;-91
2023/08/06 07:24:03;;;;;;;;;;;17.40;99.90;;;;;;5074958;28;19924;-91
2023/08/06 07:26:45;;;;;;;;;;;17.40;99.90;;;;;;5075547;28;20269;-91
2023/08/06 07:29:23;;;;;;;;;;;;;;;;;;;;;
2023/08/06 07:31:50;;;;;;;;;;;17.50;99.90;;;;;;5077572;28;19908;-91
2023/08/06 07:34:25;;;;;;;;;;;17.50;99.90;;;;;;5076034;28;19908;-92
2023/08/06 07:36:50;;;;;;;;;;;17.50;99.90;;;;;;5060961;28;20015;-91
2023/08/06 07:39:16;;;;;;;;;;;17.50;99.90;;;;;;5075463;28;19956;-91
2023/08/06 07:41:42;;;;;;;;;;;17.50;99.90;;;;;;5075265;28;19935;-91
2023/08/06 07:44:15;;;;;;;;;;;17.50;99.90;;;;;;5057499;28;19921;-91
2023/08/06 07:46:43;;;;;;;;;;;17.50;99.90;;;;;;5074675;28;19960;-90
2023/08/06 07:49:14;;;;;;;;;;;17.50;99.90;;;;;;5074613;28;19998;-91
2023/08/06 07:51:40;;;;;;;;;;;17.50;99.90;;;;;;5080547;28;19912;-90
2023/08/06 07:54:10;;;;;;;;;;;17.50;99.90;;;;;;5074843;28;19934;-91
2023/08/06 07:56:36;;;;;;;;;;;17.50;99.90;;;;;;5058436;28;19939;-91
2023/08/06 07:59:04;;;;;;;;;;;17.50;99.90;;;;;;5074425;28;19913;-91
2023/08/06 08:01:30;;;;;;;;;;;17.50;99.90;;;;;;5074181;28;19935;-91
2023/08/06 08:03:58;;;;;;;;;;;17.50;99.90;;;;;;5074386;28;19916;-90
2023/08/06 08:06:24;;;;;;;;;;;17.50;99.90;;;;;;5057556;28;19920;-90
2023/08/06 08:08:52;;;;;;;;;;;17.60;99.90;;;;;;5074155;28;19912;-91
2023/08/06 08:11:20;;;;;;;;;;;17.60;99.90;;;;;;5073907;28;19908;-91
2023/08/06 08:14:05;;;;;;;;;;;17.60;99.90;;;;;;5074783;28;20283;-90
2023/08/06 08:16:31;;;;;;;;;;;17.60;99.90;;;;;;5074585;28;20376;-91
2023/08/06 08:19:03;;;;;;;;;;;17.60;99.90;;;;;;5073954;28;19908;-91
2023/08/06 08:21:31;;;;;;;;;;;17.60;99.90;;;;;;5074029;28;19909;-91
2023/08/06 08:24:00;;;;;;;;;;;17.60;99.90;;;;;;5073806;28;19943;-91
2023/08/06 08:26:27;;;;;;;;;;;17.70;99.90;;;;;;5073641;28;19912;-92
2023/08/06 08:28:53;;;;;;;;;;;17.70;99.90;;;;;;5073964;28;19954;-91
2023/08/06 08:31:32;;;;;;;;;;;17.70;99.90;;;;;;5074017;28;19931;-91
2023/08/06 08:33:58;;;;;;;;;;;17.70;99.90;;;;;;5074231;28;20360;-91
2023/08/06 08:36:24;;;;;;;;;;;17.80;99.90;;;;;;5074092;28;19915;-91
2023/08/06 08:38:55;;;;;;;;;;;17.80;99.90;;;;;;5074211;28;19910;-90
2023/08/06 08:41:21;;;;;;;;;;;17.80;99.90;;;;;;5074068;28;19913;-91
2023/08/06 08:43:55;;;;;;;;;;;17.80;99.90;;;;;;5073573;28;19924;-91
2023/08/06 08:46:23;;;;;;;;;;;17.90;99.90;;;;;;5073960;28;20398;-91
2023/08/06 08:48:49;;;;;;;;;;;17.90;99.90;;;;;;5073856;28;20002;-90
2023/08/06 08:51:16;;;;;;;;;;;17.90;99.90;;;;;;5074651;28;19912;-92
2023/08/06 08:53:44;;;;;;;;;;;18.00;99.90;;;;;;5073019;28;19913;-84
2023/08/06 08:56:11;;;;;;;;;;;18.00;99.90;;;;;;5072774;28;20002;-87
2023/08/06 08:58:36;;;;;;;;;;;18.00;99.90;;;;;;5073197;28;19952;-89
2023/08/06 09:01:02;;;;;;;;;;;18.00;99.90;;;;;;5057031;28;19917;-90
2023/08/06 09:03:33;;;;;;;;;;;18.00;99.90;;;;;;5056635;28;19942;-90
2023/08/06 09:05:59;;;;;;;;;;;18.10;99.90;;;;;;5085154;28;19925;-89
2023/08/06 09:08:27;;;;;;;;;;;18.00;99.90;;;;;;5093225;28;19935;-96
2023/08/06 09:10:56;;;;;;;;;;;18.10;99.90;;;;;;5097888;28;19972;-89
2023/08/06 09:13:27;;;;;;;;;;;18.10;99.90;;;;;;5078015;28;20363;-90
2023/08/06 09:15:52;;;;;;;;;;;18.10;99.90;;;;;;5073726;28;19937;-89
2023/08/06 09:18:26;;;;;;;;;;;18.10;99.90;;;;;;5056506;28;19912;-89
2023/08/06 09:20:51;;;;;;;;;;;18.10;99.90;;;;;;5073172;28;19918;-88
2023/08/06 09:23:27;;;;;;;;;;;18.10;99.90;;;;;;5073158;28;19908;-89
2023/08/06 09:26:10;;;;;;;;;;;18.10;99.90;;;;;;5073129;28;19982;-88
2023/08/06 09:28:44;;;;;;;;;;;18.10;99.90;;;;;;5074162;28;19956;-89
2023/08/06 09:31:12;;;;;;;;;;;18.10;99.90;;;;;;5073257;28;19909;-88
2023/08/06 09:33:38;;;;;;;;;;;18.20;99.90;;;;;;5073180;28;19912;-88
2023/08/06 09:36:10;;;;;;;;;;;18.20;99.90;;;;;;5072971;28;19909;-88
2023/08/06 09:38:41;;;;;;;;;;;18.20;99.90;;;;;;5072780;28;19946;-88
2023/08/06 09:41:07;;;;;;;;;;;18.20;99.90;;;;;;5073128;28;19908;-88
2023/08/06 09:43:39;;;;;;;;;;;18.20;99.90;;;;;;5072950;28;19958;-92
2023/08/06 09:46:13;;;;;;;;;;;18.20;99.90;;;;;;5072678;28;19927;-92
2023/08/06 09:48:42;;;;;;;;;;;18.20;99.90;;;;;;5074050;28;19916;-93
2023/08/06 09:51:08;;;;;;;;;;;18.30;99.90;;;;;;5072803;28;20007;-92
2023/08/06 09:53:37;;;;;;;;;;;18.30;99.90;;;;;;5072928;28;20359;-91
2023/08/06 09:56:12;;;;;;;;;;;18.30;99.90;;;;;;5073138;28;19919;-93
2023/08/06 09:58:46;;;;;;;;;;;18.20;99.90;;;;;;5072825;28;19931;-91
2023/08/06 10:01:16;;;;;;;;;;;18.20;99.90;;;;;;5072786;28;19954;-92
2023/08/06 10:03:44;;;;;;;;;;;18.10;99.90;;;;;;5072634;28;20143;-92
2023/08/06 10:06:12;;;;;;;;;;;18.00;99.90;;;;;;5072785;28;19908;-92
2023/08/06 10:08:40;;;;;;;;;;;17.90;99.90;;;;;;5074799;28;19908;-92
2023/08/06 10:11:12;;;;;;;;;;;17.90;99.90;;;;;;5076316;28;19912;-93
2023/08/06 10:13:40;;;;;;;;;;;17.70;99.90;;;;;;5076203;28;20337;-94
2023/08/06 10:16:35;;;;;;;;;;;17.60;99.90;;;;;;5060097;28;19913;-93
2023/08/06 10:19:30;;;;;;;;;;;17.50;99.90;;;;;;5076154;28;19913;-93
2023/08/06 10:22:33;;;;;;;;;;;17.40;99.90;;;;;;5069893;28;19931;-90
2023/08/06 10:25:07;;;;;;;;;;;17.30;99.90;;;;;;5076449;28;19916;-90
2023/08/06 10:27:58;;;;;;;;;;;17.30;99.90;;;;;;5076021;28;20003;-88
2023/08/06 10:30:42;;;;;;;;;;;17.20;99.90;;;;;;5068731;28;19908;-90
2023/08/06 10:33:16;;;;;;;;;;;17.10;99.90;;;;;;5076240;28;19909;-88
2023/08/06 10:35:49;;;;;;;;;;;17.10;99.90;;;;;;5082153;28;19916;-89
2023/08/06 10:38:25;;;;;;;;;;;;;;;;;;;;;
2023/08/06 10:40:54;;;;;;;;;;;17.00;99.90;;;;;;5096688;28;20394;-89
2023/08/06 10:43:51;;;;;;;;;;;17.00;99.90;;;;;;5096002;28;20002;-88
2023/08/06 10:46:25;;;;;;;;;;;17.00;99.90;;;;;;5101179;28;19926;-88
2023/08/06 10:48:56;;;;;;;;;;;16.90;99.90;;;;;;5099088;28;19919;-89
2023/08/06 10:51:24;;;;;;;;;;;16.80;99.90;;;;;;5117319;28;19912;-88
2023/08/06 10:53:50;;;;;;;;;;;16.80;99.90;;;;;;5098955;28;19957;-88
2023/08/06 10:56:17;;;;;;;;;;;16.80;99.90;;;;;;5099090;28;19912;-89
2023/08/06 10:58:45;;;;;;;;;;;16.70;99.90;;;;;;5081840;28;19915;-89
2023/08/06 11:01:21;;;;;;;;;;;16.70;99.90;;;;;;5099030;28;19908;-89
2023/08/06 11:03:49;;;;;;;;;;;16.70;99.90;;;;;;5098635;28;19915;-88
2023/08/06 11:06:19;;;;;;;;;;;16.60;99.90;;;;;;5098887;28;19912;-89
2023/08/06 11:08:51;;;;;;;;;;;16.60;99.90;;;;;;5098579;28;20356;-89
2023/08/06 11:11:22;;;;;;;;;;;16.60;99.90;;;;;;5099163;28;19908;-89
2023/08/06 11:13:48;;;;;;;;;;;16.60;99.90;;;;;;5116461;28;19915;-89
2023/08/06 11:16:18;;;;;;;;;;;16.60;99.90;;;;;;5098766;28;19908;-89
2023/08/06 11:18:44;;;;;;;;;;;16.60;99.90;;;;;;5098206;28;19915;-89
2023/08/06 11:21:19;;;;;;;;;;;16.60;99.90;;;;;;5098720;28;19907;-89
2023/08/06 11:23:47;;;;;;;;;;;16.60;99.90;;;;;;5098099;28;19990;-88
2023/08/06 11:26:22;;;;;;;;;;;16.60;99.90;;;;;;5098453;28;19965;-89
2023/08/06 11:28:48;;;;;;;;;;;16.60;99.90;;;;;;5098681;28;19933;-89
2023/08/06 11:31:23;;;;;;;;;;;16.60;99.90;;;;;;5098677;28;19915;-88
2023/08/06 11:33:57;;;;;;;;;;;16.60;99.90;;;;;;5098781;28;19907;-89
2023/08/06 11:36:31;;;;;;;;;;;16.60;99.90;;;;;;5098888;28;19912;-89
2023/08/06 11:39:00;;;;;;;;;;;16.60;99.90;;;;;;5100979;28;19958;-89
2023/08/06 11:41:37;;;;;;;;;;;16.60;99.90;;;;;;5113841;28;19912;-89
2023/08/06 11:44:03;;;;;;;;;;;16.60;99.90;;;;;;5111164;28;19918;-89
2023/08/06 11:46:55;;;;;;;;;;;16.60;99.90;;;;;;5098249;28;19919;-89
2023/08/06 11:49:46;;;;;;;;;;;16.60;99.90;;;;;;5098353;28;19907;-89
2023/08/06 11:52:21;;;;;;;;;;;16.60;99.90;;;;;;5099106;28;20278;-90
2023/08/06 11:55:08;;;;;;;;;;;16.60;99.90;;;;;;5098897;28;19914;-90
2023/08/06 11:57:40;;;;;;;;;;;16.60;99.90;;;;;;5098871;28;19915;-90
2023/08/06 12:00:07;;;;;;;;;;;16.60;99.90;;;;;;5117006;28;19971;-89
2023/08/06 12:02:37;;;;;;;;;;;16.60;99.90;;;;;;5118855;28;19929;-90
2023/08/06 12:05:04;;;;;;;;;;;16.70;99.90;;;;;;5121274;28;19926;-89
2023/08/06 12:07:41;;;;;;;;;;;16.70;99.90;;;;;;5099039;28;19963;-89
2023/08/06 12:10:12;;;;;;;;;;;16.70;99.90;;;;;;5097887;28;20275;-89
2023/08/06 12:12:44;;;;;;;;;;;16.60;99.90;;;;;;5097952;28;19912;-88
2023/08/06 12:15:19;;;;;;;;;;;16.70;99.90;;;;;;5097772;28;20252;-90
2023/08/06 12:17:45;;;;;;;;;;;16.70;99.90;;;;;;5097577;28;19922;-89
2023/08/06 12:20:13;;;;;;;;;;;16.70;99.90;;;;;;5097862;28;19911;-90
2023/08/06 12:22:43;;;;;;;;;;;16.70;99.90;;;;;;5097735;28;19923;-90
2023/08/06 12:25:11;;;;;;;;;;;16.70;99.90;;;;;;5097708;28;20363;-90
2023/08/06 12:27:41;;;;;;;;;;;16.70;99.90;;;;;;5097821;28;19908;-90
2023/08/06 12:30:06;;;;;;;;;;;16.70;99.90;;;;;;5115088;28;19908;-89
2023/08/06 12:32:33;;;;;;;;;;;16.70;99.90;;;;;;5097662;28;19977;-89
2023/08/06 12:35:01;;;;;;;;;;;16.70;99.90;;;;;;5097347;28;19908;-89
2023/08/06 12:37:27;;;;;;;;;;;16.70;99.90;;;;;;5097512;28;19957;-89
2023/08/06 12:39:53;;;;;;;;;;;16.70;99.90;;;;;;5097372;28;20412;-89
2023/08/06 12:42:19;;;;;;;;;;;16.60;99.90;;;;;;5097404;28;20263;-89
2023/08/06 12:44:48;;;;;;;;;;;16.60;99.90;;;;;;5097436;28;20247;-90
2023/08/06 12:47:17;;;;;;;;;;;16.60;99.90;;;;;;5097037;28;19920;-89
2023/08/06 12:50:03;;;;;;;;;;;16.60;99.90;;;;;;5097962;28;20053;-90
2023/08/06 12:52:36;;;;;;;;;;;16.60;99.90;;;;;;5096955;28;19995;-89
2023/08/06 12:55:02;;;;;;;;;;;16.50;99.90;;;;;;5097156;28;19998;-90
2023/08/06 12:57:30;;;;;;;;;;;16.50;99.90;;;;;;5097101;28;19951;-89
2023/08/06 12:59:58;;;;;;;;;;;16.50;99.90;;;;;;5097527;28;19934;-89
2023/08/06 13:02:25;;;;;;;;;;;16.40;99.90;;;;;;5097130;28;19914;-91
2023/08/06 13:05:03;;;;;;;;;;;16.40;99.90;;;;;;5114911;28;19916;-89
2023/08/06 13:07:31;;;;;;;;;;;16.30;99.90;;;;;;5097328;28;19943;-89
2023/08/06 13:20:22;;;;;;;;;;;16.10;99.90;;;;;;5015557;28;19933;-92
2023/08/06 13:22:53;;;;;;;;;;;16.10;99.90;;;;;;5018025;28;20396;-91
2023/08/06 13:25:24;;;;;;;;;;;16.10;99.90;;;;;;5016435;28;19968;-92
2023/08/06 13:27:50;;;;;;;;;;;16.10;99.90;;;;;;5015970;28;19910;-91
2023/08/06 13:33:11;;;;;;;;;;;16.10;99.90;;;;;;5010576;28;19909;-93
2023/08/06 13:35:45;;;;;;;;;;;16.00;99.90;;;;;;5001518;28;19920;-93
2023/08/06 13:38:10;;;;;;;;;;;16.00;99.90;;;;;;5016201;28;19932;-93
2023/08/06 13:40:46;;;;;;;;;;;;;;;;;;;;;
2023/08/06 13:43:21;;;;;;;;;;;16.00;99.90;;;;;;5021597;28;19969;-92
2023/08/06 13:45:47;;;;;;;;;;;16.00;99.90;;;;;;5011690;28;19924;-93
2023/08/06 13:48:13;;;;;;;;;;;16.00;99.90;;;;;;5011489;28;19956;-94
2023/08/06 13:50:51;;;;;;;;;;;16.00;99.90;;;;;;5014190;28;19920;-95
2023/08/06 13:53:29;;;;;;;;;;;;;;;;;;;;;
2023/08/06 13:55:58;;;;;;;;;;;16.00;99.90;;;;;;5013810;28;20024;-95
2023/08/06 13:58:26;;;;;;;;;;;16.00;99.90;;;;;;5006107;28;19909;-92
2023/08/06 14:00:57;;;;;;;;;;;16.00;99.90;;;;;;5012978;28;19925;-94
2023/08/06 14:03:56;;;;;;;;;;;;;;;;;;;;;
2023/08/06 14:06:37;;;;;;;;;;;;;;;;;;;;;
2023/08/06 14:09:18;;;;;;;;;;;;;;;;;;;;;
2023/08/06 14:12:11;;;;;;;;;;;16.10;99.90;;;;;;5036118;28;19929;-94
2023/08/06 14:14:41;;;;;;;;;;;16.10;99.90;;;;;;5032244;28;19906;-94
2023/08/06 14:17:12;;;;;;;;;;;16.10;99.90;;;;;;5037581;28;19909;-95
2023/08/06 14:19:57;;;;;;;;;;;16.10;99.90;;;;;;5026432;28;20365;-93
2023/08/06 14:22:44;;;;;;;;;;;;;;;;;;;;;
2023/08/06 14:25:20;;;;;;;;;;;16.20;99.90;;;;;;5014575;28;19918;-95
2023/08/06 14:27:59;;;;;;;;;;;;;;;;;;;;;
2023/08/06 14:31:00;;;;;;;;;;;;;;;;;;;;;
2023/08/06 14:33:42;;;;;;;;;;;;;;;;;;;;;
2023/08/06 14:36:25;;;;;;;;;;;16.20;99.90;;;;;;5003917;28;19936;-94
2023/08/06 14:39:01;;;;;;;;;;;;;;;;;;;;;
2023/08/06 14:41:50;;;;;;;;;;;16.30;99.90;;;;;;5011503;28;20000;-94
2023/08/06 14:44:26;;;;;;;;;;;16.30;99.90;;;;;;5011641;28;19928;-94
2023/08/06 14:47:18;;;;;;;;;;;16.30;99.90;;;;;;4996924;28;19920;-93
2023/08/06 14:49:54;;;;;;;;;;;16.30;99.90;;;;;;5025120;28;19917;-95
2023/08/06 14:52:22;;;;;;;;;;;16.30;99.90;;;;;;5014287;28;20361;-95
2023/08/06 14:54:58;;;;;;;;;;;;;;;;;;;;;
2023/08/06 14:57:27;;;;;;;;;;;16.30;99.90;;;;;;5007458;28;19910;-92
2023/08/06 14:59:53;;;;;;;;;;;16.30;99.90;;;;;;5031190;28;19913;-93
2023/08/06 15:02:43;;;;;;;;;;;16.40;99.90;;;;;;5007686;28;19917;-92
2023/08/06 15:05:16;;;;;;;;;;;16.40;99.90;;;;;;5010128;28;19921;-91
2023/08/06 15:07:42;;;;;;;;;;;16.40;99.90;;;;;;5004901;28;19933;-92
2023/08/06 15:10:07;;;;;;;;;;;16.40;99.90;;;;;;5007135;28;19914;-92
2023/08/06 15:12:33;;;;;;;;;;;16.40;99.90;;;;;;5016086;28;19921;-93
2023/08/06 15:15:26;;;;;;;;;;;;;;;;;;;;;
2023/08/06 15:17:53;;;;;;;;;;;16.40;99.90;;;;;;5009421;28;19932;-92
2023/08/06 15:20:18;;;;;;;;;;;16.40;99.90;;;;;;5010448;28;20422;-92
2023/08/06 15:22:47;;;;;;;;;;;16.40;99.90;;;;;;5009482;28;19921;-93